sensor_id;sensor_type;location;lat;lon;timestamp;pressure;altitude;pressure_sealevel;temperature;humidity
60337;BME280;46978;50.288;28.624;2022-11-15T00:00:50;99842.76;;;2.26;99.28
60337;BME280;46978;50.288;28.624;2022-11-15T00:01:52;99837.64;;;2.26;99.32
60337;BME280;46978;50.288;28.624;2022-11-15T00:02:54;99835.97;;;2.26;99.56
60337;BME280;46978;50.288;28.624;2022-11-15T00:03:56;99835.97;;;2.26;99.56
60337;BME280;46978;50.288;28.624;2022-11-15T00:04:58;99827.39;;;2.26;99.28
60337;BME280;46978;50.288;28.624;2022-11-15T00:06:05;99843.64;;;2.26;99.19
60337;BME280;46978;50.288;28.624;2022-11-15T00:07:07;99836.81;;;2.27;99.17
60337;BME280;46978;50.288;28.624;2022-11-15T00:08:10;99834.26;;;2.27;99.28
60337;BME280;46978;50.288;28.624;2022-11-15T00:09:12;99831.73;;;2.28;99.22
60337;BME280;46978;50.288;28.624;2022-11-15T00:10:14;99833.44;;;2.28;99.08
60337;BME280;46978;50.288;28.624;2022-11-15T00:11:16;99832.59;;;2.29;99.23
60337;BME280;46978;50.288;28.624;2022-11-15T00:12:17;99830.88;;;2.28;99.23
60337;BME280;46978;50.288;28.624;2022-11-15T00:13:19;99829.20;;;2.30;99.25
60337;BME280;46978;50.288;28.624;2022-11-15T00:14:21;99830.02;;;2.29;99.26
60337;BME280;46978;50.288;28.624;2022-11-15T00:15:23;99825.80;;;2.29;99.25
60337;BME280;46978;50.288;28.624;2022-11-15T00:16:24;99826.64;;;2.30;99.20
60337;BME280;46978;50.288;28.624;2022-11-15T00:17:26;99823.23;;;2.29;99.05
60337;BME280;46978;50.288;28.624;2022-11-15T00:18:29;99821.48;;;2.28;98.87
60337;BME280;46978;50.288;28.624;2022-11-15T00:19:31;99821.48;;;2.28;98.87
60337;BME280;46978;50.288;28.624;2022-11-15T00:20:36;99824.02;;;2.27;98.95
60337;BME280;46978;50.288;28.624;2022-11-15T00:21:38;99831.66;;;2.25;98.96
60337;BME280;46978;50.288;28.624;2022-11-15T00:22:39;99819.64;;;2.23;99.13
60337;BME280;46978;50.288;28.624;2022-11-15T00:23:41;99822.20;;;2.23;99.31
60337;BME280;46978;50.288;28.624;2022-11-15T00:24:43;99826.47;;;2.22;99.38
60337;BME280;46978;50.288;28.624;2022-11-15T00:25:44;99817.97;;;2.23;99.55
60337;BME280;46978;50.288;28.624;2022-11-15T00:26:46;99823.05;;;2.22;99.46
60337;BME280;46978;50.288;28.624;2022-11-15T00:27:48;99817.12;;;2.24;99.49
60337;BME280;46978;50.288;28.624;2022-11-15T00:29:00;99818.83;;;2.24;99.47
60337;BME280;46978;50.288;28.624;2022-11-15T00:30:02;99814.55;;;2.24;99.39
60337;BME280;46978;50.288;28.624;2022-11-15T00:31:06;99811.92;;;2.21;99.26
60337;BME280;46978;50.288;28.624;2022-11-15T00:32:12;99814.48;;;2.21;99.41
60337;BME280;46978;50.288;28.624;2022-11-15T00:33:13;99802.54;;;2.20;99.33
60337;BME280;46978;50.288;28.624;2022-11-15T00:34:15;99807.66;;;2.20;99.42
60337;BME280;46978;50.288;28.624;2022-11-15T00:35:18;99805.91;;;2.19;99.44
60337;BME280;46978;50.288;28.624;2022-11-15T00:36:20;99805.98;;;2.22;99.38
60337;BME280;46978;50.288;28.624;2022-11-15T00:37:22;99805.98;;;2.22;99.38
60337;BME280;46978;50.288;28.624;2022-11-15T00:38:23;99802.57;;;2.22;99.52
60337;BME280;46978;50.288;28.624;2022-11-15T00:39:25;99803.46;;;2.24;99.57
60337;BME280;46978;50.288;28.624;2022-11-15T00:40:27;99806.88;;;2.24;99.62
60337;BME280;46978;50.288;28.624;2022-11-15T00:41:29;99808.62;;;2.25;99.67
60337;BME280;46978;50.288;28.624;2022-11-15T00:42:31;99806.95;;;2.27;99.59
60337;BME280;46978;50.288;28.624;2022-11-15T00:43:33;99804.42;;;2.29;99.61
60337;BME280;46978;50.288;28.624;2022-11-15T00:44:35;99809.54;;;2.29;99.49
60337;BME280;46978;50.288;28.624;2022-11-15T00:45:36;99812.10;;;2.29;99.31
60337;BME280;46978;50.288;28.624;2022-11-15T00:46:38;99806.12;;;2.28;99.00
60337;BME280;46978;50.288;28.624;2022-11-15T00:47:40;99812.98;;;2.29;99.08
60337;BME280;46978;50.288;28.624;2022-11-15T00:48:44;99809.54;;;2.29;98.90
60337;BME280;46978;50.288;28.624;2022-11-15T00:49:46;99805.23;;;2.26;98.56
60337;BME280;46978;50.288;28.624;2022-11-15T00:50:48;99803.53;;;2.27;98.63
60337;BME280;46978;50.288;28.624;2022-11-15T00:51:50;99804.38;;;2.27;98.77
60337;BME280;46978;50.288;28.624;2022-11-15T00:52:52;99802.71;;;2.28;98.66
60337;BME280;46978;50.288;28.624;2022-11-15T00:53:54;99791.55;;;2.26;98.46
60337;BME280;46978;50.288;28.624;2022-11-15T00:54:56;99797.55;;;2.26;98.33
60337;BME280;46978;50.288;28.624;2022-11-15T00:55:58;99793.25;;;2.25;98.00
60337;BME280;46978;50.288;28.624;2022-11-15T00:56:59;99796.59;;;2.23;97.83
60337;BME280;46978;50.288;28.624;2022-11-15T00:58:01;99795.75;;;2.22;97.71
60337;BME280;46978;50.288;28.624;2022-11-15T00:59:03;99797.42;;;2.20;97.63
60337;BME280;46978;50.288;28.624;2022-11-15T01:00:07;99792.27;;;2.19;97.72
60337;BME280;46978;50.288;28.624;2022-11-15T01:01:11;99789.70;;;2.19;97.88
60337;BME280;46978;50.288;28.624;2022-11-15T01:02:13;99788.81;;;2.18;98.07
60337;BME280;46978;50.288;28.624;2022-11-15T01:03:15;99790.52;;;2.18;98.17
60337;BME280;46978;50.288;28.624;2022-11-15T01:04:17;99788.81;;;2.18;98.28
60337;BME280;46978;50.288;28.624;2022-11-15T01:05:18;99791.44;;;2.21;98.42
60337;BME280;46978;50.288;28.624;2022-11-15T01:06:20;99791.48;;;2.23;98.42
60337;BME280;46978;50.288;28.624;2022-11-15T01:07:22;99791.52;;;2.24;98.36
60337;BME280;46978;50.288;28.624;2022-11-15T01:08:24;99780.45;;;2.25;98.30
60337;BME280;46978;50.288;28.624;2022-11-15T01:09:26;99778.71;;;2.24;98.06
60337;BME280;46978;50.288;28.624;2022-11-15T01:10:27;99786.39;;;2.24;98.13
60337;BME280;46978;50.288;28.624;2022-11-15T01:11:29;99787.25;;;2.23;98.06
60337;BME280;46978;50.288;28.624;2022-11-15T01:12:31;99777.00;;;2.23;98.05
60337;BME280;46978;50.288;28.624;2022-11-15T01:13:33;99788.95;;;2.24;98.17
60337;BME280;46978;50.288;28.624;2022-11-15T01:14:35;99783.02;;;2.25;98.11
60337;BME280;46978;50.288;28.624;2022-11-15T01:15:40;99777.03;;;2.25;98.02
60337;BME280;46978;50.288;28.624;2022-11-15T01:16:42;99777.92;;;2.27;98.13
60337;BME280;46978;50.288;28.624;2022-11-15T01:17:44;99774.55;;;2.28;98.17
60337;BME280;46978;50.288;28.624;2022-11-15T01:18:46;99771.13;;;2.29;98.21
60337;BME280;46978;50.288;28.624;2022-11-15T01:19:48;99775.47;;;2.31;98.02
60337;BME280;46978;50.288;28.624;2022-11-15T01:20:50;99772.08;;;2.32;98.00
60337;BME280;46978;50.288;28.624;2022-11-15T01:21:51;99772.94;;;2.33;97.86
60337;BME280;46978;50.288;28.624;2022-11-15T01:22:54;99772.12;;;2.34;97.82
60337;BME280;46978;50.288;28.624;2022-11-15T01:23:56;99775.53;;;2.35;97.91
60337;BME280;46978;50.288;28.624;2022-11-15T01:24:58;99772.15;;;2.36;97.94
60337;BME280;46978;50.288;28.624;2022-11-15T01:26:02;99764.50;;;2.37;98.00
60337;BME280;46978;50.288;28.624;2022-11-15T01:27:04;99761.94;;;2.37;97.90
60337;BME280;46978;50.288;28.624;2022-11-15T01:28:06;99763.64;;;2.38;97.76
60337;BME280;46978;50.288;28.624;2022-11-15T01:29:08;99767.91;;;2.38;97.77
60337;BME280;46978;50.288;28.624;2022-11-15T01:30:11;99767.95;;;2.39;97.71
60337;BME280;46978;50.288;28.624;2022-11-15T01:31:18;99767.09;;;2.39;97.61
60337;BME280;46978;50.288;28.624;2022-11-15T01:32:18;99760.23;;;2.38;97.49
60337;BME280;46978;50.288;28.624;2022-11-15T01:33:20;99765.36;;;2.38;97.35
60337;BME280;46978;50.288;28.624;2022-11-15T01:34:22;99766.17;;;2.37;96.96
60337;BME280;46978;50.288;28.624;2022-11-15T01:35:24;99766.11;;;2.33;96.80
60337;BME280;46978;50.288;28.624;2022-11-15T01:36:26;99759.25;;;2.31;96.38
60337;BME280;46978;50.288;28.624;2022-11-15T01:37:27;99756.59;;;2.26;96.24
60337;BME280;46978;50.288;28.624;2022-11-15T01:38:29;99754.88;;;2.27;96.63
60337;BME280;46978;50.288;28.624;2022-11-15T01:39:31;99761.70;;;2.26;96.57
60337;BME280;46978;50.288;28.624;2022-11-15T01:40:33;99750.55;;;2.24;96.58
60337;BME280;46978;50.288;28.624;2022-11-15T01:41:34;99753.11;;;2.24;96.54
60337;BME280;46978;50.288;28.624;2022-11-15T01:42:36;99749.69;;;2.24;96.59
60337;BME280;46978;50.288;28.624;2022-11-15T01:43:39;99759.11;;;2.25;96.57
60337;BME280;46978;50.288;28.624;2022-11-15T01:44:47;99753.99;;;2.25;96.52
60337;BME280;46978;50.288;28.624;2022-11-15T01:45:58;99749.69;;;2.24;96.32
60337;BME280;46978;50.288;28.624;2022-11-15T01:47:00;99754.81;;;2.24;96.38
60337;BME280;46978;50.288;28.624;2022-11-15T01:48:03;99746.28;;;2.23;96.45
60337;BME280;46978;50.288;28.624;2022-11-15T01:49:11;99748.80;;;2.22;96.25
60337;BME280;46978;50.288;28.624;2022-11-15T01:50:14;99745.36;;;2.21;96.11
60337;BME280;46978;50.288;28.624;2022-11-15T01:51:18;99747.03;;;2.19;96.18
60337;BME280;46978;50.288;28.624;2022-11-15T01:52:22;99739.31;;;2.18;96.08
60337;BME280;46978;50.288;28.624;2022-11-15T01:53:26;99740.14;;;2.17;95.91
60337;BME280;46978;50.288;28.624;2022-11-15T01:54:28;99739.28;;;2.16;95.74
60337;BME280;46978;50.288;28.624;2022-11-15T01:55:30;99737.55;;;2.15;95.70
60337;BME280;46978;50.288;28.624;2022-11-15T01:56:36;99739.22;;;2.13;95.39
60337;BME280;46978;50.288;28.624;2022-11-15T01:57:38;99733.20;;;2.11;95.34
60337;BME280;46978;50.288;28.624;2022-11-15T01:58:41;99725.50;;;2.09;95.33
60337;BME280;46978;50.288;28.624;2022-11-15T01:59:45;99729.70;;;2.07;95.38
60337;BME280;46978;50.288;28.624;2022-11-15T02:00:48;99729.70;;;2.07;95.52
60337;BME280;46978;50.288;28.624;2022-11-15T02:01:51;99728.84;;;2.07;95.68
60337;BME280;46978;50.288;28.624;2022-11-15T02:02:53;99725.43;;;2.06;95.71
60337;BME280;46978;50.288;28.624;2022-11-15T02:04:10;99721.16;;;2.07;95.52
60337;BME280;46978;50.288;28.624;2022-11-15T02:05:12;99727.95;;;2.05;95.61
60337;BME280;46978;50.288;28.624;2022-11-15T02:06:15;99724.51;;;2.04;95.48
60337;BME280;46978;50.288;28.624;2022-11-15T02:07:18;99722.83;;;2.05;95.52
60337;BME280;46978;50.288;28.624;2022-11-15T02:08:21;99719.39;;;2.04;95.62
60337;BME280;46978;50.288;28.624;2022-11-15T02:09:23;99710.86;;;2.04;95.38
60337;BME280;46978;50.288;28.624;2022-11-15T02:10:25;99710.89;;;2.05;95.12
60337;BME280;46978;50.288;28.624;2022-11-15T02:11:26;99717.68;;;2.03;95.16
60337;BME280;46978;50.288;28.624;2022-11-15T02:12:29;99714.23;;;2.03;95.24
60337;BME280;46978;50.288;28.624;2022-11-15T02:13:31;99715.09;;;2.02;95.28
60337;BME280;46978;50.288;28.624;2022-11-15T02:14:33;99715.91;;;2.01;95.34
60337;BME280;46978;50.288;28.624;2022-11-15T02:15:39;99714.20;;;2.01;95.44
60337;BME280;46978;50.288;28.624;2022-11-15T02:16:53;99708.23;;;2.01;95.50
60337;BME280;46978;50.288;28.624;2022-11-15T02:20:51;99699.66;;;1.99;95.54
60337;BME280;46978;50.288;28.624;2022-11-15T02:26:39;99701.41;;;2.01;96.07
60337;BME280;46978;50.288;28.624;2022-11-15T02:28:00;99704.84;;;2.02;95.96
60337;BME280;46978;50.288;28.624;2022-11-15T02:29:17;99698.88;;;2.03;96.04
60337;BME280;46978;50.288;28.624;2022-11-15T02:32:15;99698.02;;;2.02;95.92
60337;BME280;46978;50.288;28.624;2022-11-15T02:38:46;99681.72;;;1.97;95.49
60337;BME280;46978;50.288;28.624;2022-11-15T02:39:57;99687.63;;;1.94;95.11
60337;BME280;46978;50.288;28.624;2022-11-15T02:41:09;99685.88;;;1.93;95.40
60337;BME280;46978;50.288;28.624;2022-11-15T02:42:21;99689.33;;;1.94;95.56
60337;BME280;46978;50.288;28.624;2022-11-15T02:43:35;99683.32;;;1.93;95.65
60337;BME280;46978;50.288;28.624;2022-11-15T02:44:41;99685.88;;;1.93;95.68
60337;BME280;46978;50.288;28.624;2022-11-15T02:45:46;99685.88;;;1.93;95.71
60337;BME280;46978;50.288;28.624;2022-11-15T02:47:00;99691.00;;;1.93;95.74
60337;BME280;46978;50.288;28.624;2022-11-15T02:48:04;99692.73;;;1.94;95.89
60337;BME280;46978;50.288;28.624;2022-11-15T02:49:07;99691.03;;;1.95;95.73
60337;BME280;46978;50.288;28.624;2022-11-15T02:50:13;99682.50;;;1.94;95.68
60337;BME280;46978;50.288;28.624;2022-11-15T02:51:16;99687.63;;;1.94;95.71
60337;BME280;46978;50.288;28.624;2022-11-15T02:52:23;99680.80;;;1.95;95.83
60337;BME280;46978;50.288;28.624;2022-11-15T02:53:26;99683.39;;;1.96;95.63
60337;BME280;46978;50.288;28.624;2022-11-15T02:54:33;99680.83;;;1.96;95.53
60337;BME280;46978;50.288;28.624;2022-11-15T02:55:38;99681.69;;;1.95;95.09
60337;BME280;46978;50.288;28.624;2022-11-15T02:56:41;99677.31;;;1.91;94.80
60337;BME280;46978;50.288;28.624;2022-11-15T02:57:55;99682.44;;;1.91;94.91
60337;BME280;46978;50.288;28.624;2022-11-15T02:59:04;99674.73;;;1.90;94.80
60337;BME280;46978;50.288;28.624;2022-11-15T03:00:15;99682.37;;;1.88;94.85
60337;BME280;46978;50.288;28.624;2022-11-15T03:09:55;99672.06;;;1.85;95.71
60337;BME280;46978;50.288;28.624;2022-11-15T03:11:11;99667.77;;;1.84;95.73
60337;BME280;46978;50.288;28.624;2022-11-15T03:12:45;99668.62;;;1.83;95.38
60337;BME280;46978;50.288;28.624;2022-11-15T03:13:53;99671.11;;;1.80;95.31
60337;BME280;46978;50.288;28.624;2022-11-15T03:14:59;99676.23;;;1.80;95.29
60337;BME280;46978;50.288;28.624;2022-11-15T03:16:12;99669.38;;;1.79;95.38
60337;BME280;46978;50.288;28.624;2022-11-15T03:17:30;99666.81;;;1.79;95.33
60337;BME280;46978;50.288;28.624;2022-11-15T03:18:38;99668.52;;;1.78;95.48
60337;BME280;46978;50.288;28.624;2022-11-15T03:19:46;99661.70;;;1.79;95.46
60337;BME280;46978;50.288;28.624;2022-11-15T03:20:50;99660.84;;;1.78;95.33
60337;BME280;46978;50.288;28.624;2022-11-15T03:21:52;99657.40;;;1.78;95.44
60337;BME280;46978;50.288;28.624;2022-11-15T03:23:00;99657.33;;;1.75;95.56
60337;BME280;46978;50.288;28.624;2022-11-15T03:24:03;99662.41;;;1.73;95.70
60337;BME280;46978;50.288;28.624;2022-11-15T03:25:09;99657.30;;;1.73;95.92
60337;BME280;46978;50.288;28.624;2022-11-15T03:26:14;99656.44;;;1.73;95.98
60337;BME280;46978;50.288;28.624;2022-11-15T03:27:20;99649.63;;;1.73;95.95
60337;BME280;46978;50.288;28.624;2022-11-15T03:28:26;99651.30;;;1.71;95.78
60337;BME280;46978;50.288;28.624;2022-11-15T03:29:37;99644.44;;;1.70;95.79
60337;BME280;46978;50.288;28.624;2022-11-15T03:30:39;99645.28;;;1.69;95.74
60337;BME280;46978;50.288;28.624;2022-11-15T03:31:45;99642.70;;;1.68;95.86
60337;BME280;46978;50.288;28.624;2022-11-15T03:32:56;99638.41;;;1.67;95.94
60337;BME280;46978;50.288;28.624;2022-11-15T03:33:57;99640.95;;;1.67;96.09
60337;BME280;46978;50.288;28.624;2022-11-15T03:36:09;99631.58;;;1.67;96.27
60337;BME280;46978;50.288;28.624;2022-11-15T03:37:13;99635.87;;;1.68;96.23
60337;BME280;46978;50.288;28.624;2022-11-15T03:38:24;99626.50;;;1.69;96.09
60337;BME280;46978;50.288;28.624;2022-11-15T03:39:28;99631.64;;;1.70;96.14
60337;BME280;46978;50.288;28.624;2022-11-15T03:40:58;99628.27;;;1.71;96.10
60337;BME280;46978;50.288;28.624;2022-11-15T03:44:46;99634.30;;;1.75;96.20
60337;BME280;46978;50.288;28.624;2022-11-15T03:46:07;99620.76;;;1.79;96.15
60337;BME280;46978;50.288;28.624;2022-11-15T03:47:34;99619.87;;;1.77;95.91
60337;BME280;46978;50.288;28.624;2022-11-15T03:48:46;99612.23;;;1.78;95.83
60337;BME280;46978;50.288;28.624;2022-11-15T03:49:57;99611.38;;;1.79;95.96
60337;BME280;46978;50.288;28.624;2022-11-15T03:50:59;99607.11;;;1.78;95.95
60337;BME280;46978;50.288;28.624;2022-11-15T03:52:02;99599.47;;;1.80;96.00
60337;BME280;46978;50.288;28.624;2022-11-15T03:53:05;99599.47;;;1.80;95.99
60337;BME280;46978;50.288;28.624;2022-11-15T03:54:07;99599.47;;;1.80;96.00
60337;BME280;46978;50.288;28.624;2022-11-15T03:55:11;99601.17;;;1.81;96.10
60337;BME280;46978;50.288;28.624;2022-11-15T03:56:14;99597.80;;;1.82;96.14
60337;BME280;46978;50.288;28.624;2022-11-15T03:57:16;99597.80;;;1.82;96.17
60337;BME280;46978;50.288;28.624;2022-11-15T03:58:18;99603.77;;;1.83;96.16
60337;BME280;46978;50.288;28.624;2022-11-15T03:59:20;99596.09;;;1.83;96.19
60337;BME280;46978;50.288;28.624;2022-11-15T04:00:22;99596.09;;;1.83;96.29
60337;BME280;46978;50.288;28.624;2022-11-15T04:01:24;99594.42;;;1.83;96.41
60337;BME280;46978;50.288;28.624;2022-11-15T04:02:26;99596.98;;;1.83;96.50
60337;BME280;46978;50.288;28.624;2022-11-15T04:03:27;99593.53;;;1.83;96.71
60337;BME280;46978;50.288;28.624;2022-11-15T04:04:29;99597.83;;;1.84;96.76
60337;BME280;46978;50.288;28.624;2022-11-15T04:05:31;99590.97;;;1.83;96.83
60337;BME280;46978;50.288;28.624;2022-11-15T04:06:33;99596.98;;;1.83;96.93
60337;BME280;46978;50.288;28.624;2022-11-15T04:07:35;99591.86;;;1.83;96.97
60337;BME280;46978;50.288;28.624;2022-11-15T04:08:37;99592.71;;;1.84;97.10
60337;BME280;46978;50.288;28.624;2022-11-15T04:09:39;99589.33;;;1.85;97.12
60337;BME280;46978;50.288;28.624;2022-11-15T04:10:41;99585.89;;;1.84;97.33
60337;BME280;46978;50.288;28.624;2022-11-15T04:11:43;99585.06;;;1.85;97.40
60337;BME280;46978;50.288;28.624;2022-11-15T04:12:45;99591.04;;;1.86;97.29
60337;BME280;46978;50.288;28.624;2022-11-15T04:13:47;99586.77;;;1.85;97.42
60337;BME280;46978;50.288;28.624;2022-11-15T04:14:49;99575.69;;;1.86;97.57
60337;BME280;46978;50.288;28.624;2022-11-15T04:15:51;99587.63;;;1.85;97.65
60337;BME280;46978;50.288;28.624;2022-11-15T04:16:53;99575.75;;;1.89;97.77
60337;BME280;46978;50.288;28.624;2022-11-15T04:17:56;99582.57;;;1.88;97.75
60337;BME280;46978;50.288;28.624;2022-11-15T04:18:58;99575.72;;;1.87;97.81
60337;BME280;46978;50.288;28.624;2022-11-15T04:20:00;99575.75;;;1.89;97.94
60337;BME280;46978;50.288;28.624;2022-11-15T04:21:01;99578.27;;;1.87;97.93
60337;BME280;46978;50.288;28.624;2022-11-15T04:22:03;99574.89;;;1.88;98.07
60337;BME280;46978;50.288;28.624;2022-11-15T04:23:14;99570.62;;;1.89;98.29
60337;BME280;46978;50.288;28.624;2022-11-15T04:24:16;99570.66;;;1.90;98.35
60337;BME280;46978;50.288;28.624;2022-11-15T04:25:18;99565.60;;;1.93;98.23
60337;BME280;46978;50.288;28.624;2022-11-15T04:26:22;99562.19;;;1.93;98.22
60337;BME280;46978;50.288;28.624;2022-11-15T04:27:24;99564.72;;;1.91;98.17
60337;BME280;46978;50.288;28.624;2022-11-15T04:28:26;99564.72;;;1.91;98.19
60337;BME280;46978;50.288;28.624;2022-11-15T04:29:27;99555.30;;;1.90;98.27
60337;BME280;46978;50.288;28.624;2022-11-15T04:30:29;99561.31;;;1.91;98.43
60337;BME280;46978;50.288;28.624;2022-11-15T04:31:31;99561.38;;;1.94;98.51
60337;BME280;46978;50.288;28.624;2022-11-15T04:32:33;99561.38;;;1.94;98.62
60337;BME280;46978;50.288;28.624;2022-11-15T04:33:34;99560.48;;;1.93;98.52
60337;BME280;46978;50.288;28.624;2022-11-15T04:34:36;99554.55;;;1.94;98.54
60337;BME280;46978;50.288;28.624;2022-11-15T04:35:38;99560.52;;;1.95;98.58
60337;BME280;46978;50.288;28.624;2022-11-15T04:36:40;99561.38;;;1.94;98.50
60337;BME280;46978;50.288;28.624;2022-11-15T04:37:42;99557.95;;;1.95;98.62
60337;BME280;46978;50.288;28.624;2022-11-15T04:38:43;99552.02;;;1.96;98.60
60337;BME280;46978;50.288;28.624;2022-11-15T04:39:45;99553.72;;;1.95;98.65
60337;BME280;46978;50.288;28.624;2022-11-15T04:40:47;99555.45;;;1.98;98.70
60337;BME280;46978;50.288;28.624;2022-11-15T04:41:48;99548.63;;;1.97;98.67
60337;BME280;46978;50.288;28.624;2022-11-15T04:42:50;99549.48;;;1.97;98.60
60337;BME280;46978;50.288;28.624;2022-11-15T04:43:52;99551.20;;;1.97;98.59
60337;BME280;46978;50.288;28.624;2022-11-15T04:44:54;99550.31;;;1.96;98.58
60337;BME280;46978;50.288;28.624;2022-11-15T04:45:55;99547.78;;;1.98;98.70
60337;BME280;46978;50.288;28.624;2022-11-15T04:46:57;99545.25;;;2.00;98.79
60337;BME280;46978;50.288;28.624;2022-11-15T04:47:59;99552.92;;;2.00;98.72
60337;BME280;46978;50.288;28.624;2022-11-15T04:49:04;99546.98;;;2.01;98.74
60337;BME280;46978;50.288;28.624;2022-11-15T04:50:07;99542.72;;;2.01;98.69
60337;BME280;46978;50.288;28.624;2022-11-15T04:51:09;99541.05;;;2.02;98.67
60337;BME280;46978;50.288;28.624;2022-11-15T04:52:10;99541.90;;;2.02;98.75
60337;BME280;46978;50.288;28.624;2022-11-15T04:53:12;99545.31;;;2.03;98.82
60337;BME280;46978;50.288;28.624;2022-11-15T04:54:14;99545.34;;;2.04;98.72
60337;BME280;46978;50.288;28.624;2022-11-15T04:55:16;99547.90;;;2.04;98.62
60337;BME280;46978;50.288;28.624;2022-11-15T04:56:17;99544.48;;;2.04;98.66
60337;BME280;46978;50.288;28.624;2022-11-15T04:57:20;99543.66;;;2.05;98.69
60337;BME280;46978;50.288;28.624;2022-11-15T04:58:22;99545.34;;;2.04;98.72
60337;BME280;46978;50.288;28.624;2022-11-15T04:59:23;99536.81;;;2.04;98.77
60337;BME280;46978;50.288;28.624;2022-11-15T05:00:26;99536.84;;;2.05;98.87
60337;BME280;46978;50.288;28.624;2022-11-15T05:01:28;99545.39;;;2.07;98.92
60337;BME280;46978;50.288;28.624;2022-11-15T05:02:30;99539.45;;;2.08;98.90
60337;BME280;46978;50.288;28.624;2022-11-15T05:03:31;99536.87;;;2.07;98.74
60337;BME280;46978;50.288;28.624;2022-11-15T05:04:33;99541.16;;;2.08;98.82
60337;BME280;46978;50.288;28.624;2022-11-15T05:05:35;99532.62;;;2.09;98.81
60337;BME280;46978;50.288;28.624;2022-11-15T05:06:37;99534.37;;;2.10;98.83
60337;BME280;46978;50.288;28.624;2022-11-15T05:07:39;99536.10;;;2.11;98.76
60337;BME280;46978;50.288;28.624;2022-11-15T05:08:40;99535.25;;;2.12;98.74
60337;BME280;46978;50.288;28.624;2022-11-15T05:09:42;99539.52;;;2.11;98.69
60337;BME280;46978;50.288;28.624;2022-11-15T05:10:44;99527.53;;;2.10;98.66
60337;BME280;46978;50.288;28.624;2022-11-15T05:11:46;99531.84;;;2.11;98.71
60337;BME280;46978;50.288;28.624;2022-11-15T05:12:48;99538.69;;;2.12;98.64
60337;BME280;46978;50.288;28.624;2022-11-15T05:13:49;99541.25;;;2.12;98.67
60337;BME280;46978;50.288;28.624;2022-11-15T05:14:51;99531.86;;;2.13;98.71
60337;BME280;46978;50.288;28.624;2022-11-15T05:15:53;99530.16;;;2.13;98.58
60337;BME280;46978;50.288;28.624;2022-11-15T05:16:54;99531.02;;;2.12;98.62
60337;BME280;46978;50.288;28.624;2022-11-15T05:18:00;99528.42;;;2.11;98.62
60337;BME280;46978;50.288;28.624;2022-11-15T05:19:02;99527.53;;;2.10;98.75
60337;BME280;46978;50.288;28.624;2022-11-15T05:20:04;99529.25;;;2.10;98.87
60337;BME280;46978;50.288;28.624;2022-11-15T05:21:09;99527.53;;;2.10;98.90
60337;BME280;46978;50.288;28.624;2022-11-15T05:22:11;99527.53;;;2.10;98.93
60337;BME280;46978;50.288;28.624;2022-11-15T05:23:12;99519.89;;;2.12;99.08
60337;BME280;46978;50.288;28.624;2022-11-15T05:24:14;99530.16;;;2.13;99.21
60337;BME280;46978;50.288;28.624;2022-11-15T05:25:16;99519.91;;;2.13;99.24
60337;BME280;46978;50.288;28.624;2022-11-15T05:26:18;99526.77;;;2.14;99.05
60337;BME280;46978;50.288;28.624;2022-11-15T05:27:20;99529.33;;;2.14;99.20
60337;BME280;46978;50.288;28.624;2022-11-15T05:28:22;99524.19;;;2.13;99.27
60337;BME280;46978;50.288;28.624;2022-11-15T05:29:23;99526.77;;;2.14;99.42
60337;BME280;46978;50.288;28.624;2022-11-15T05:30:25;99521.66;;;2.14;99.54
60337;BME280;46978;50.288;28.624;2022-11-15T05:31:27;99521.68;;;2.16;99.68
60337;BME280;46978;50.288;28.624;2022-11-15T05:32:29;99522.56;;;2.18;99.52
60337;BME280;46978;50.288;28.624;2022-11-15T05:33:32;99522.56;;;2.18;99.52
60337;BME280;46978;50.288;28.624;2022-11-15T05:34:34;99522.56;;;2.18;99.49
60337;BME280;46978;50.288;28.624;2022-11-15T05:35:41;99526.83;;;2.18;99.45
60337;BME280;46978;50.288;28.624;2022-11-15T05:36:44;99522.59;;;2.20;99.60
60337;BME280;46978;50.288;28.624;2022-11-15T05:37:46;99521.73;;;2.19;99.56
60337;BME280;46978;50.288;28.624;2022-11-15T05:38:48;99522.56;;;2.18;99.58
60337;BME280;46978;50.288;28.624;2022-11-15T05:39:50;99524.30;;;2.19;99.71
60337;BME280;46978;50.288;28.624;2022-11-15T05:40:52;99522.59;;;2.20;99.74
60337;BME280;46978;50.288;28.624;2022-11-15T05:41:59;99520.03;;;2.20;99.85
60337;BME280;46978;50.288;28.624;2022-11-15T05:43:00;99518.38;;;2.22;100.00
60337;BME280;46978;50.288;28.624;2022-11-15T05:44:05;99520.97;;;2.23;100.00
60337;BME280;46978;50.288;28.624;2022-11-15T05:45:09;99518.44;;;2.25;100.00
60337;BME280;46978;50.288;28.624;2022-11-15T05:46:13;99519.28;;;2.25;100.00
60337;BME280;46978;50.288;28.624;2022-11-15T05:47:23;99522.73;;;2.27;100.00
60337;BME280;46978;50.288;28.624;2022-11-15T05:48:26;99521.05;;;2.28;100.00
60337;BME280;46978;50.288;28.624;2022-11-15T05:49:30;99511.66;;;2.28;100.00
60337;BME280;46978;50.288;28.624;2022-11-15T05:50:33;99515.93;;;2.28;100.00
60337;BME280;46978;50.288;28.624;2022-11-15T05:51:36;99514.22;;;2.28;100.00
60337;BME280;46978;50.288;28.624;2022-11-15T05:52:38;99516.81;;;2.30;100.00
60337;BME280;46978;50.288;28.624;2022-11-15T05:53:40;99515.07;;;2.29;100.00
60337;BME280;46978;50.288;28.624;2022-11-15T05:54:43;99520.22;;;2.30;100.00
60337;BME280;46978;50.288;28.624;2022-11-15T05:55:45;99515.13;;;2.32;100.00
60337;BME280;46978;50.288;28.624;2022-11-15T05:56:47;99516.86;;;2.33;100.00
60337;BME280;46978;50.288;28.624;2022-11-15T05:57:50;99509.18;;;2.33;100.00
60337;BME280;46978;50.288;28.624;2022-11-15T05:58:53;99510.89;;;2.32;100.00
60337;BME280;46978;50.288;28.624;2022-11-15T05:59:56;99517.71;;;2.33;100.00
60337;BME280;46978;50.288;28.624;2022-11-15T06:00:59;99514.33;;;2.35;100.00
60337;BME280;46978;50.288;28.624;2022-11-15T06:02:01;99515.20;;;2.37;100.00
60337;BME280;46978;50.288;28.624;2022-11-15T06:03:03;99511.82;;;2.38;100.00
60337;BME280;46978;50.288;28.624;2022-11-15T06:04:05;99511.84;;;2.39;100.00
60337;BME280;46978;50.288;28.624;2022-11-15T06:05:07;99513.58;;;2.40;100.00